sensor_id;sensor_type;location;lat;lon;timestamp;temperature;humidity
75489;HTU21D;64069;46.396;48.102;2024-02-04T00:01:03;0.93;88.18
75489;HTU21D;64069;46.396;48.102;2024-02-04T00:03:29;0.93;88.16
75489;HTU21D;64069;46.396;48.102;2024-02-04T00:05:55;0.91;88.15
75489;HTU21D;64069;46.396;48.102;2024-02-04T00:08:21;0.92;88.19
75489;HTU21D;64069;46.396;48.102;2024-02-04T00:10:47;0.90;88.18
75489;HTU21D;64069;46.396;48.102;2024-02-04T00:13:13;0.91;88.20
75489;HTU21D;64069;46.396;48.102;2024-02-04T00:15:39;0.95;88.15
75489;HTU21D;64069;46.396;48.102;2024-02-04T00:18:04;0.96;88.11
75489;HTU21D;64069;46.396;48.102;2024-02-04T00:20:30;0.99;88.06
75489;HTU21D;64069;46.396;48.102;2024-02-04T00:22:58;1.01;88.02
75489;HTU21D;64069;46.396;48.102;2024-02-04T00:25:24;1.02;88.02
75489;HTU21D;64069;46.396;48.102;2024-02-04T00:27:49;0.99;88.00
75489;HTU21D;64069;46.396;48.102;2024-02-04T00:30:15;0.98;88.08
75489;HTU21D;64069;46.396;48.102;2024-02-04T00:32:41;0.97;88.14
75489;HTU21D;64069;46.396;48.102;2024-02-04T00:35:07;0.98;88.26
75489;HTU21D;64069;46.396;48.102;2024-02-04T00:37:33;0.99;88.26
75489;HTU21D;64069;46.396;48.102;2024-02-04T00:39:58;1.01;88.27
75489;HTU21D;64069;46.396;48.102;2024-02-04T00:42:24;0.99;88.31
75489;HTU21D;64069;46.396;48.102;2024-02-04T00:44:50;1.01;88.33
75489;HTU21D;64069;46.396;48.102;2024-02-04T00:47:16;1.02;88.44
75489;HTU21D;64069;46.396;48.102;2024-02-04T00:49:42;1.05;88.37
75489;HTU21D;64069;46.396;48.102;2024-02-04T00:52:07;1.04;88.36
75489;HTU21D;64069;46.396;48.102;2024-02-04T00:54:33;1.03;88.37
75489;HTU21D;64069;46.396;48.102;2024-02-04T00:56:59;1.02;88.42
75489;HTU21D;64069;46.396;48.102;2024-02-04T00:59:25;1.04;88.46
75489;HTU21D;64069;46.396;48.102;2024-02-04T01:01:51;1.06;88.51
75489;HTU21D;64069;46.396;48.102;2024-02-04T01:04:17;1.08;88.46
75489;HTU21D;64069;46.396;48.102;2024-02-04T01:06:43;1.10;88.44
75489;HTU21D;64069;46.396;48.102;2024-02-04T01:09:09;1.12;88.43
75489;HTU21D;64069;46.396;48.102;2024-02-04T01:11:34;1.13;88.43
75489;HTU21D;64069;46.396;48.102;2024-02-04T01:14:00;1.17;88.42
75489;HTU21D;64069;46.396;48.102;2024-02-04T01:16:26;1.19;88.41
75489;HTU21D;64069;46.396;48.102;2024-02-04T01:18:52;1.20;88.43
75489;HTU21D;64069;46.396;48.102;2024-02-04T01:21:18;1.25;88.45
75489;HTU21D;64069;46.396;48.102;2024-02-04T01:23:44;1.26;88.38
75489;HTU21D;64069;46.396;48.102;2024-02-04T01:26:09;1.28;88.35
75489;HTU21D;64069;46.396;48.102;2024-02-04T01:28:35;1.29;88.33
75489;HTU21D;64069;46.396;48.102;2024-02-04T01:31:01;1.29;88.34
75489;HTU21D;64069;46.396;48.102;2024-02-04T01:33:27;1.28;88.38
75489;HTU21D;64069;46.396;48.102;2024-02-04T01:35:52;1.27;88.41
75489;HTU21D;64069;46.396;48.102;2024-02-04T01:38:19;1.28;88.40
75489;HTU21D;64069;46.396;48.102;2024-02-04T01:40:45;1.27;88.38
75489;HTU21D;64069;46.396;48.102;2024-02-04T01:43:12;1.26;88.43
75489;HTU21D;64069;46.396;48.102;2024-02-04T01:45:37;1.26;88.45
75489;HTU21D;64069;46.396;48.102;2024-02-04T01:48:03;1.28;88.47
75489;HTU21D;64069;46.396;48.102;2024-02-04T01:50:29;1.27;88.48
75489;HTU21D;64069;46.396;48.102;2024-02-04T01:52:55;1.26;88.50
75489;HTU21D;64069;46.396;48.102;2024-02-04T01:55:21;1.26;88.51
75489;HTU21D;64069;46.396;48.102;2024-02-04T01:57:47;1.27;88.55
75489;HTU21D;64069;46.396;48.102;2024-02-04T02:00:13;1.26;88.55
75489;HTU21D;64069;46.396;48.102;2024-02-04T02:02:39;1.27;88.57
75489;HTU21D;64069;46.396;48.102;2024-02-04T02:05:05;1.29;88.57
75489;HTU21D;64069;46.396;48.102;2024-02-04T02:07:31;1.31;88.56
75489;HTU21D;64069;46.396;48.102;2024-02-04T02:09:57;1.32;88.54
75489;HTU21D;64069;46.396;48.102;2024-02-04T02:12:27;1.33;88.54
75489;HTU21D;64069;46.396;48.102;2024-02-04T02:14:57;1.35;88.51
75489;HTU21D;64069;46.396;48.102;2024-02-04T02:17:26;1.34;88.54
75489;HTU21D;64069;46.396;48.102;2024-02-04T02:24:49;1.40;88.52
75489;HTU21D;64069;46.396;48.102;2024-02-04T02:27:15;1.42;88.51
75489;HTU21D;64069;46.396;48.102;2024-02-04T02:29:41;1.45;88.47
75489;HTU21D;64069;46.396;48.102;2024-02-04T02:32:07;1.46;88.41
75489;HTU21D;64069;46.396;48.102;2024-02-04T02:34:33;1.47;88.38
75489;HTU21D;64069;46.396;48.102;2024-02-04T02:37:12;1.49;88.35
75489;HTU21D;64069;46.396;48.102;2024-02-04T02:39:49;1.50;88.29
75489;HTU21D;64069;46.396;48.102;2024-02-04T02:42:20;1.51;88.27
75489;HTU21D;64069;46.396;48.102;2024-02-04T02:44:47;1.51;88.25
75489;HTU21D;64069;46.396;48.102;2024-02-04T02:47:13;1.51;88.25
75489;HTU21D;64069;46.396;48.102;2024-02-04T02:49:40;1.51;88.25
75489;HTU21D;64069;46.396;48.102;2024-02-04T02:52:06;1.53;88.23
75489;HTU21D;64069;46.396;48.102;2024-02-04T02:54:32;1.57;88.20
75489;HTU21D;64069;46.396;48.102;2024-02-04T02:56:58;1.58;88.15
75489;HTU21D;64069;46.396;48.102;2024-02-04T02:59:23;1.58;88.18
75489;HTU21D;64069;46.396;48.102;2024-02-04T03:01:49;1.60;88.19
75489;HTU21D;64069;46.396;48.102;2024-02-04T03:06:48;1.63;88.25
75489;HTU21D;64069;46.396;48.102;2024-02-04T03:09:14;1.64;88.28
75489;HTU21D;64069;46.396;48.102;2024-02-04T03:11:40;1.66;88.32
75489;HTU21D;64069;46.396;48.102;2024-02-04T03:14:06;1.67;88.36
75489;HTU21D;64069;46.396;48.102;2024-02-04T03:16:31;1.69;88.38
75489;HTU21D;64069;46.396;48.102;2024-02-04T03:18:57;1.70;88.39
75489;HTU21D;64069;46.396;48.102;2024-02-04T03:21:23;1.71;88.39
75489;HTU21D;64069;46.396;48.102;2024-02-04T03:23:49;1.72;88.40
75489;HTU21D;64069;46.396;48.102;2024-02-04T03:26:18;1.71;88.46
75489;HTU21D;64069;46.396;48.102;2024-02-04T03:28:45;1.73;88.47
75489;HTU21D;64069;46.396;48.102;2024-02-04T03:31:11;1.77;88.54
75489;HTU21D;64069;46.396;48.102;2024-02-04T03:33:36;1.79;88.50
75489;HTU21D;64069;46.396;48.102;2024-02-04T03:36:02;1.80;88.50
75489;HTU21D;64069;46.396;48.102;2024-02-04T03:38:28;1.81;88.48
75489;HTU21D;64069;46.396;48.102;2024-02-04T03:40:54;1.83;88.47
75489;HTU21D;64069;46.396;48.102;2024-02-04T03:43:20;1.82;88.48
75489;HTU21D;64069;46.396;48.102;2024-02-04T03:45:46;1.79;88.60
75489;HTU21D;64069;46.396;48.102;2024-02-04T03:48:12;1.77;88.70
75489;HTU21D;64069;46.396;48.102;2024-02-04T03:50:38;1.72;88.83
75489;HTU21D;64069;46.396;48.102;2024-02-04T03:53:03;1.68;89.00
75489;HTU21D;64069;46.396;48.102;2024-02-04T03:55:29;1.66;89.14
75489;HTU21D;64069;46.396;48.102;2024-02-04T03:57:55;1.65;89.20
75489;HTU21D;64069;46.396;48.102;2024-02-04T04:00:24;1.66;89.27
75489;HTU21D;64069;46.396;48.102;2024-02-04T04:02:50;1.64;89.31
75489;HTU21D;64069;46.396;48.102;2024-02-04T04:05:16;1.61;89.40
75489;HTU21D;64069;46.396;48.102;2024-02-04T04:07:42;1.56;89.54
75489;HTU21D;64069;46.396;48.102;2024-02-04T04:10:08;1.53;89.67
75489;HTU21D;64069;46.396;48.102;2024-02-04T04:12:33;1.48;89.96
75489;HTU21D;64069;46.396;48.102;2024-02-04T04:14:59;1.45;90.06
75489;HTU21D;64069;46.396;48.102;2024-02-04T04:17:25;1.42;90.25
75489;HTU21D;64069;46.396;48.102;2024-02-04T04:19:51;1.38;90.54
75489;HTU21D;64069;46.396;48.102;2024-02-04T04:22:17;1.34;90.70
75489;HTU21D;64069;46.396;48.102;2024-02-04T04:24:42;1.33;90.83
75489;HTU21D;64069;46.396;48.102;2024-02-04T04:27:08;1.29;90.86
75489;HTU21D;64069;46.396;48.102;2024-02-04T04:29:34;1.28;91.22
75489;HTU21D;64069;46.396;48.102;2024-02-04T04:32:00;1.27;91.20
75489;HTU21D;64069;46.396;48.102;2024-02-04T04:34:26;1.26;91.22
75489;HTU21D;64069;46.396;48.102;2024-02-04T04:36:51;1.25;91.29
75489;HTU21D;64069;46.396;48.102;2024-02-04T04:39:17;1.28;91.45
75489;HTU21D;64069;46.396;48.102;2024-02-04T04:41:43;1.29;91.50
75489;HTU21D;64069;46.396;48.102;2024-02-04T04:44:09;1.31;91.65
75489;HTU21D;64069;46.396;48.102;2024-02-04T04:46:38;1.32;91.64
75489;HTU21D;64069;46.396;48.102;2024-02-04T04:49:05;1.34;91.88
75489;HTU21D;64069;46.396;48.102;2024-02-04T04:51:31;1.36;92.01
75489;HTU21D;64069;46.396;48.102;2024-02-04T04:53:57;1.36;92.05
75489;HTU21D;64069;46.396;48.102;2024-02-04T04:56:22;1.39;92.21
75489;HTU21D;64069;46.396;48.102;2024-02-04T04:58:48;1.41;92.30
75489;HTU21D;64069;46.396;48.102;2024-02-04T05:01:15;1.45;92.34
75489;HTU21D;64069;46.396;48.102;2024-02-04T05:03:41;1.46;92.32
75489;HTU21D;64069;46.396;48.102;2024-02-04T05:06:07;1.45;92.62
75489;HTU21D;64069;46.396;48.102;2024-02-04T05:08:32;1.43;92.80
75489;HTU21D;64069;46.396;48.102;2024-02-04T05:10:58;1.42;92.80
75489;HTU21D;64069;46.396;48.102;2024-02-04T05:13:24;1.42;92.97
75489;HTU21D;64069;46.396;48.102;2024-02-04T05:15:50;1.42;93.14
75489;HTU21D;64069;46.396;48.102;2024-02-04T05:18:15;1.45;93.19
75489;HTU21D;64069;46.396;48.102;2024-02-04T05:20:41;1.46;93.25
75489;HTU21D;64069;46.396;48.102;2024-02-04T05:23:09;1.46;93.37
75489;HTU21D;64069;46.396;48.102;2024-02-04T05:25:34;1.49;93.43
75489;HTU21D;64069;46.396;48.102;2024-02-04T05:28:00;1.52;93.43
75489;HTU21D;64069;46.396;48.102;2024-02-04T05:30:26;1.54;93.38
75489;HTU21D;64069;46.396;48.102;2024-02-04T05:32:52;1.57;93.47
75489;HTU21D;64069;46.396;48.102;2024-02-04T05:35:17;1.60;93.57
75489;HTU21D;64069;46.396;48.102;2024-02-04T05:37:43;1.63;93.66
75489;HTU21D;64069;46.396;48.102;2024-02-04T05:40:09;1.64;93.71
75489;HTU21D;64069;46.396;48.102;2024-02-04T05:42:35;1.66;93.85
75489;HTU21D;64069;46.396;48.102;2024-02-04T05:45:02;1.71;93.91
75489;HTU21D;64069;46.396;48.102;2024-02-04T05:47:28;1.76;93.94
75489;HTU21D;64069;46.396;48.102;2024-02-04T05:49:54;1.80;93.95
75489;HTU21D;64069;46.396;48.102;2024-02-04T05:52:20;1.83;93.99
75489;HTU21D;64069;46.396;48.102;2024-02-04T05:54:45;1.87;93.93
75489;HTU21D;64069;46.396;48.102;2024-02-04T05:57:11;1.91;94.08
75489;HTU21D;64069;46.396;48.102;2024-02-04T05:59:37;1.94;94.00
75489;HTU21D;64069;46.396;48.102;2024-02-04T06:02:04;1.96;94.00
75489;HTU21D;64069;46.396;48.102;2024-02-04T06:04:30;1.97;94.01
75489;HTU21D;64069;46.396;48.102;2024-02-04T06:06:56;1.97;93.98
75489;HTU21D;64069;46.396;48.102;2024-02-04T06:09:21;1.99;93.91
75489;HTU21D;64069;46.396;48.102;2024-02-04T06:11:47;2.01;93.88
75489;HTU21D;64069;46.396;48.102;2024-02-04T06:14:13;2.01;93.80
75489;HTU21D;64069;46.396;48.102;2024-02-04T06:16:39;2.01;93.72
75489;HTU21D;64069;46.396;48.102;2024-02-04T06:19:05;2.00;93.60
75489;HTU21D;64069;46.396;48.102;2024-02-04T06:21:31;1.98;93.56
75489;HTU21D;64069;46.396;48.102;2024-02-04T06:23:56;1.96;93.49
75489;HTU21D;64069;46.396;48.102;2024-02-04T06:26:23;1.96;93.40
75489;HTU21D;64069;46.396;48.102;2024-02-04T06:28:49;1.98;93.29
75489;HTU21D;64069;46.396;48.102;2024-02-04T06:31:16;1.97;93.12
75489;HTU21D;64069;46.396;48.102;2024-02-04T06:33:42;2.01;92.88
75489;HTU21D;64069;46.396;48.102;2024-02-04T06:36:08;2.06;92.69
75489;HTU21D;64069;46.396;48.102;2024-02-04T06:38:34;2.13;92.46
75489;HTU21D;64069;46.396;48.102;2024-02-04T06:41:00;2.16;92.17
75489;HTU21D;64069;46.396;48.102;2024-02-04T06:43:25;2.20;91.95
75489;HTU21D;64069;46.396;48.102;2024-02-04T06:45:51;2.27;91.82
75489;HTU21D;64069;46.396;48.102;2024-02-04T06:48:20;2.32;91.66
75489;HTU21D;64069;46.396;48.102;2024-02-04T06:50:46;2.39;91.53
75489;HTU21D;64069;46.396;48.102;2024-02-04T06:53:13;2.44;91.32
75489;HTU21D;64069;46.396;48.102;2024-02-04T06:55:39;2.43;91.04
75489;HTU21D;64069;46.396;48.102;2024-02-04T06:58:05;2.39;90.92
75489;HTU21D;64069;46.396;48.102;2024-02-04T07:00:31;2.35;90.97
75489;HTU21D;64069;46.396;48.102;2024-02-04T07:02:56;2.34;91.10
75489;HTU21D;64069;46.396;48.102;2024-02-04T07:05:22;2.34;91.12
75489;HTU21D;64069;46.396;48.102;2024-02-04T07:07:51;2.29;91.21
75489;HTU21D;64069;46.396;48.102;2024-02-04T07:10:18;2.25;91.33
75489;HTU21D;64069;46.396;48.102;2024-02-04T07:12:44;2.24;91.44
75489;HTU21D;64069;46.396;48.102;2024-02-04T07:15:10;2.27;91.54
75489;HTU21D;64069;46.396;48.102;2024-02-04T07:17:36;2.30;91.55
75489;HTU21D;64069;46.396;48.102;2024-02-04T07:20:02;2.31;91.52
75489;HTU21D;64069;46.396;48.102;2024-02-04T07:22:28;2.31;91.57
75489;HTU21D;64069;46.396;48.102;2024-02-04T07:24:54;2.32;91.63
75489;HTU21D;64069;46.396;48.102;2024-02-04T07:27:19;2.31;91.73
75489;HTU21D;64069;46.396;48.102;2024-02-04T07:29:45;2.29;91.82
75489;HTU21D;64069;46.396;48.102;2024-02-04T07:32:13;2.27;91.91
75489;HTU21D;64069;46.396;48.102;2024-02-04T07:34:39;2.26;91.99
75489;HTU21D;64069;46.396;48.102;2024-02-04T07:37:05;2.24;92.08
75489;HTU21D;64069;46.396;48.102;2024-02-04T07:39:30;2.25;92.28
75489;HTU21D;64069;46.396;48.102;2024-02-04T07:41:56;2.25;92.34
75489;HTU21D;64069;46.396;48.102;2024-02-04T07:44:26;2.29;92.35
75489;HTU21D;64069;46.396;48.102;2024-02-04T07:46:52;2.35;92.37
75489;HTU21D;64069;46.396;48.102;2024-02-04T07:49:18;2.41;92.32
75489;HTU21D;64069;46.396;48.102;2024-02-04T07:51:44;2.44;92.19
75489;HTU21D;64069;46.396;48.102;2024-02-04T07:54:10;2.46;92.18
75489;HTU21D;64069;46.396;48.102;2024-02-04T07:56:36;2.49;92.15
75489;HTU21D;64069;46.396;48.102;2024-02-04T07:59:02;2.51;92.16
75489;HTU21D;64069;46.396;48.102;2024-02-04T08:01:29;2.52;92.20
75489;HTU21D;64069;46.396;48.102;2024-02-04T08:03:55;2.52;92.31
75489;HTU21D;64069;46.396;48.102;2024-02-04T08:06:21;2.54;92.37
75489;HTU21D;64069;46.396;48.102;2024-02-04T08:08:47;2.59;92.37
75489;HTU21D;64069;46.396;48.102;2024-02-04T08:11:19;2.61;92.43
75489;HTU21D;64069;46.396;48.102;2024-02-04T08:13:45;2.59;92.47
75489;HTU21D;64069;46.396;48.102;2024-02-04T08:16:11;2.56;92.54
75489;HTU21D;64069;46.396;48.102;2024-02-04T08:18:37;2.54;92.59
75489;HTU21D;64069;46.396;48.102;2024-02-04T08:21:03;2.50;92.68
75489;HTU21D;64069;46.396;48.102;2024-02-04T08:23:29;2.49;92.77
75489;HTU21D;64069;46.396;48.102;2024-02-04T08:25:54;2.46;92.86
75489;HTU21D;64069;46.396;48.102;2024-02-04T08:28:22;2.46;92.95
75489;HTU21D;64069;46.396;48.102;2024-02-04T08:30:49;2.51;92.95
75489;HTU21D;64069;46.396;48.102;2024-02-04T08:33:15;2.58;92.89
75489;HTU21D;64069;46.396;48.102;2024-02-04T08:35:41;2.65;92.79
75489;HTU21D;64069;46.396;48.102;2024-02-04T08:38:07;2.70;92.66
75489;HTU21D;64069;46.396;48.102;2024-02-04T08:40:32;2.78;92.52
75489;HTU21D;64069;46.396;48.102;2024-02-04T08:42:58;2.84;92.40
75489;HTU21D;64069;46.396;48.102;2024-02-04T08:45:24;2.90;92.27
75489;HTU21D;64069;46.396;48.102;2024-02-04T08:47:50;2.96;92.11
75489;HTU21D;64069;46.396;48.102;2024-02-04T08:50:15;3.02;92.01
75489;HTU21D;64069;46.396;48.102;2024-02-04T08:52:41;3.10;91.82
75489;HTU21D;64069;46.396;48.102;2024-02-04T08:55:07;3.15;91.63
75489;HTU21D;64069;46.396;48.102;2024-02-04T08:57:34;3.19;91.46
75489;HTU21D;64069;46.396;48.102;2024-02-04T09:00:00;3.21;91.31
75489;HTU21D;64069;46.396;48.102;2024-02-04T09:02:26;3.25;91.15
75489;HTU21D;64069;46.396;48.102;2024-02-04T09:04:51;3.30;91.10
75489;HTU21D;64069;46.396;48.102;2024-02-04T09:07:18;3.38;91.05
75489;HTU21D;64069;46.396;48.102;2024-02-04T09:09:44;3.46;90.95
75489;HTU21D;64069;46.396;48.102;2024-02-04T09:12:10;3.59;90.53
75489;HTU21D;64069;46.396;48.102;2024-02-04T09:14:35;3.70;90.23
75489;HTU21D;64069;46.396;48.102;2024-02-04T09:17:04;3.78;89.80
75489;HTU21D;64069;46.396;48.102;2024-02-04T09:19:31;3.85;89.25
75489;HTU21D;64069;46.396;48.102;2024-02-04T09:21:57;3.91;89.04
75489;HTU21D;64069;46.396;48.102;2024-02-04T09:24:23;3.97;89.01
75489;HTU21D;64069;46.396;48.102;2024-02-04T09:26:49;3.98;88.65
75489;HTU21D;64069;46.396;48.102;2024-02-04T09:29:15;3.93;88.35
75489;HTU21D;64069;46.396;48.102;2024-02-04T09:31:40;3.87;88.09
75489;HTU21D;64069;46.396;48.102;2024-02-04T09:34:06;3.76;88.16
75489;HTU21D;64069;46.396;48.102;2024-02-04T09:36:32;3.67;88.56
75489;HTU21D;64069;46.396;48.102;2024-02-04T09:38:58;3.63;88.80
75489;HTU21D;64069;46.396;48.102;2024-02-04T09:41:24;3.62;88.97
75489;HTU21D;64069;46.396;48.102;2024-02-04T09:43:51;3.64;89.05
75489;HTU21D;64069;46.396;48.102;2024-02-04T09:46:17;3.63;89.12
75489;HTU21D;64069;46.396;48.102;2024-02-04T09:48:44;3.59;89.05
75489;HTU21D;64069;46.396;48.102;2024-02-04T09:51:10;3.55;89.12
75489;HTU21D;64069;46.396;48.102;2024-02-04T09:53:36;3.50;89.07
75489;HTU21D;64069;46.396;48.102;2024-02-04T09:56:06;3.46;89.11
75489;HTU21D;64069;46.396;48.102;2024-02-04T09:58:33;3.43;89.28
75489;HTU21D;64069;46.396;48.102;2024-02-04T10:01:02;3.39;89.38
75489;HTU21D;64069;46.396;48.102;2024-02-04T10:03:28;3.36;89.52
75489;HTU21D;64069;46.396;48.102;2024-02-04T10:05:54;3.33;89.65
75489;HTU21D;64069;46.396;48.102;2024-02-04T10:08:20;3.31;89.76
75489;HTU21D;64069;46.396;48.102;2024-02-04T10:10:46;3.32;89.88
75489;HTU21D;64069;46.396;48.102;2024-02-04T10:13:12;3.31;89.99
75489;HTU21D;64069;46.396;48.102;2024-02-04T10:15:38;3.36;90.09
75489;HTU21D;64069;46.396;48.102;2024-02-04T10:18:04;3.42;90.15
75489;HTU21D;64069;46.396;48.102;2024-02-04T10:20:31;3.43;90.18
75489;HTU21D;64069;46.396;48.102;2024-02-04T10:22:57;3.45;90.31
75489;HTU21D;64069;46.396;48.102;2024-02-04T10:25:22;3.48;90.34
75489;HTU21D;64069;46.396;48.102;2024-02-04T10:27:48;3.50;90.44
75489;HTU21D;64069;46.396;48.102;2024-02-04T10:30:14;3.49;90.63
75489;HTU21D;64069;46.396;48.102;2024-02-04T10:32:41;3.49;90.79
75489;HTU21D;64069;46.396;48.102;2024-02-04T10:35:07;3.50;90.98
75489;HTU21D;64069;46.396;48.102;2024-02-04T10:37:34;3.52;91.12
75489;HTU21D;64069;46.396;48.102;2024-02-04T10:40:00;3.54;91.19
75489;HTU21D;64069;46.396;48.102;2024-02-04T10:42:26;3.56;91.27
75489;HTU21D;64069;46.396;48.102;2024-02-04T10:44:53;3.58;91.40
75489;HTU21D;64069;46.396;48.102;2024-02-04T10:47:23;3.59;91.50
75489;HTU21D;64069;46.396;48.102;2024-02-04T10:49:52;3.60;91.56
75489;HTU21D;64069;46.396;48.102;2024-02-04T10:52:22;3.61;91.57
75489;HTU21D;64069;46.396;48.102;2024-02-04T10:54:49;3.60;91.61
75489;HTU21D;64069;46.396;48.102;2024-02-04T10:57:17;3.58;91.74
75489;HTU21D;64069;46.396;48.102;2024-02-04T10:59:46;3.56;91.85
75489;HTU21D;64069;46.396;48.102;2024-02-04T11:02:13;3.53;91.90
75489;HTU21D;64069;46.396;48.102;2024-02-04T11:04:40;3.50;92.11
75489;HTU21D;64069;46.396;48.102;2024-02-04T11:07:07;3.45;92.22
75489;HTU21D;64069;46.396;48.102;2024-02-04T11:09:33;3.40;92.43
75489;HTU21D;64069;46.396;48.102;2024-02-04T11:11:59;3.34;92.63
75489;HTU21D;64069;46.396;48.102;2024-02-04T11:14:26;3.27;92.79
75489;HTU21D;64069;46.396;48.102;2024-02-04T11:16:57;3.23;93.00
75489;HTU21D;64069;46.396;48.102;2024-02-04T11:27:02;3.30;93.33
75489;HTU21D;64069;46.396;48.102;2024-02-04T11:29:28;3.34;93.37
75489;HTU21D;64069;46.396;48.102;2024-02-04T11:31:54;3.38;93.44
75489;HTU21D;64069;46.396;48.102;2024-02-04T11:34:20;3.39;93.43
75489;HTU21D;64069;46.396;48.102;2024-02-04T11:36:46;3.42;93.56
75489;HTU21D;64069;46.396;48.102;2024-02-04T11:39:12;3.48;93.75
75489;HTU21D;64069;46.396;48.102;2024-02-04T11:41:46;3.56;93.74
75489;HTU21D;64069;46.396;48.102;2024-02-04T11:44:19;3.64;93.79
75489;HTU21D;64069;46.396;48.102;2024-02-04T11:46:46;3.70;93.59
75489;HTU21D;64069;46.396;48.102;2024-02-04T11:49:15;3.72;93.53
75489;HTU21D;64069;46.396;48.102;2024-02-04T11:51:49;3.71;93.66
75489;HTU21D;64069;46.396;48.102;2024-02-04T11:54:16;3.72;93.69
75489;HTU21D;64069;46.396;48.102;2024-02-04T11:56:42;3.75;93.74
75489;HTU21D;64069;46.396;48.102;2024-02-04T11:59:08;3.77;93.69
75489;HTU21D;64069;46.396;48.102;2024-02-04T12:01:35;3.79;93.69
75489;HTU21D;64069;46.396;48.102;2024-02-04T12:04:14;3.86;93.67
75489;HTU21D;64069;46.396;48.102;2024-02-04T12:06:41;3.93;93.62
75489;HTU21D;64069;46.396;48.102;2024-02-04T12:09:07;3.99;93.44
75489;HTU21D;64069;46.396;48.102;2024-02-04T12:11:34;4.02;93.38
75489;HTU21D;64069;46.396;48.102;2024-02-04T12:14:00;4.09;93.29
75489;HTU21D;64069;46.396;48.102;2024-02-04T12:16:27;4.14;93.09
75489;HTU21D;64069;46.396;48.102;2024-02-04T12:18:53;4.21;92.93
75489;HTU21D;64069;46.396;48.102;2024-02-04T12:21:19;4.22;92.76
75489;HTU21D;64069;46.396;48.102;2024-02-04T12:23:45;4.24;92.72
75489;HTU21D;64069;46.396;48.102;2024-02-04T12:26:12;4.24;92.68
75489;HTU21D;64069;46.396;48.102;2024-02-04T12:28:37;4.26;92.66
75489;HTU21D;64069;46.396;48.102;2024-02-04T12:31:03;4.29;92.56
75489;HTU21D;64069;46.396;48.102;2024-02-04T12:33:29;4.31;92.50
75489;HTU21D;64069;46.396;48.102;2024-02-04T12:35:55;4.34;92.44
75489;HTU21D;64069;46.396;48.102;2024-02-04T12:38:23;4.36;92.37
75489;HTU21D;64069;46.396;48.102;2024-02-04T12:40:49;4.41;92.28
75489;HTU21D;64069;46.396;48.102;2024-02-04T12:43:16;4.45;92.18
75489;HTU21D;64069;46.396;48.102;2024-02-04T12:45:42;4.47;92.05
75489;HTU21D;64069;46.396;48.102;2024-02-04T12:48:08;4.50;91.95
75489;HTU21D;64069;46.396;48.102;2024-02-04T12:50:36;4.52;91.84
75489;HTU21D;64069;46.396;48.102;2024-02-04T12:53:03;4.56;91.72
75489;HTU21D;64069;46.396;48.102;2024-02-04T12:55:30;4.56;91.73
75489;HTU21D;64069;46.396;48.102;2024-02-04T12:58:06;4.58;91.74
75489;HTU21D;64069;46.396;48.102;2024-02-04T13:00:32;4.59;91.69
75489;HTU21D;64069;46.396;48.102;2024-02-04T13:02:58;4.60;91.63
75489;HTU21D;64069;46.396;48.102;2024-02-04T13:05:24;4.62;91.56
75489;HTU21D;64069;46.396;48.102;2024-02-04T13:07:54;4.60;91.53
75489;HTU21D;64069;46.396;48.102;2024-02-04T13:10:24;4.62;91.37
75489;HTU21D;64069;46.396;48.102;2024-02-04T13:15:29;4.66;91.21
75489;HTU21D;64069;46.396;48.102;2024-02-04T13:17:55;4.69;91.09
75489;HTU21D;64069;46.396;48.102;2024-02-04T13:20:21;4.73;90.96
75489;HTU21D;64069;46.396;48.102;2024-02-04T13:22:47;4.76;90.82
75489;HTU21D;64069;46.396;48.102;2024-02-04T13:25:13;4.77;90.75
75489;HTU21D;64069;46.396;48.102;2024-02-04T13:27:38;4.77;90.79
75489;HTU21D;64069;46.396;48.102;2024-02-04T13:30:05;4.76;90.67
75489;HTU21D;64069;46.396;48.102;2024-02-04T13:32:35;4.75;90.71
75489;HTU21D;64069;46.396;48.102;2024-02-04T13:35:01;4.74;90.68
75489;HTU21D;64069;46.396;48.102;2024-02-04T13:37:27;4.77;90.57
75489;HTU21D;64069;46.396;48.102;2024-02-04T13:39:52;4.82;90.45
75489;HTU21D;64069;46.396;48.102;2024-02-04T13:42:18;4.83;90.34
75489;HTU21D;64069;46.396;48.102;2024-02-04T13:44:44;4.82;90.29
75489;HTU21D;64069;46.396;48.102;2024-02-04T13:47:10;4.83;90.26
75489;HTU21D;64069;46.396;48.102;2024-02-04T13:49:36;4.86;90.13
75489;HTU21D;64069;46.396;48.102;2024-02-04T13:52:01;4.89;90.05
75489;HTU21D;64069;46.396;48.102;2024-02-04T13:54:27;4.92;89.89
75489;HTU21D;64069;46.396;48.102;2024-02-04T13:56:53;4.96;89.77
75489;HTU21D;64069;46.396;48.102;2024-02-04T13:59:19;4.98;89.79
75489;HTU21D;64069;46.396;48.102;2024-02-04T14:01:44;4.96;89.78
75489;HTU21D;64069;46.396;48.102;2024-02-04T14:04:10;4.96;89.66
75489;HTU21D;64069;46.396;48.102;2024-02-04T14:06:36;4.94;89.67
75489;HTU21D;64069;46.396;48.102;2024-02-04T14:09:02;4.95;89.77
75489;HTU21D;64069;46.396;48.102;2024-02-04T14:11:28;4.94;89.75
75489;HTU21D;64069;46.396;48.102;2024-02-04T14:13:54;4.94;89.81
75489;HTU21D;64069;46.396;48.102;2024-02-04T14:16:20;4.94;89.69
75489;HTU21D;64069;46.396;48.102;2024-02-04T14:18:46;5.00;89.48
75489;HTU21D;64069;46.396;48.102;2024-02-04T14:21:12;5.03;89.28
75489;HTU21D;64069;46.396;48.102;2024-02-04T14:23:40;5.08;88.99
75489;HTU21D;64069;46.396;48.102;2024-02-04T14:26:05;5.11;88.71
75489;HTU21D;64069;46.396;48.102;2024-02-04T14:28:34;5.18;88.58
75489;HTU21D;64069;46.396;48.102;2024-02-04T14:31:07;5.23;88.42
75489;HTU21D;64069;46.396;48.102;2024-02-04T14:33:32;5.24;88.50
75489;HTU21D;64069;46.396;48.102;2024-02-04T14:35:58;5.24;88.12
75489;HTU21D;64069;46.396;48.102;2024-02-04T14:38:26;5.30;87.93
75489;HTU21D;64069;46.396;48.102;2024-02-04T14:40:52;5.31;87.91
75489;HTU21D;64069;46.396;48.102;2024-02-04T14:43:17;5.31;87.80
75489;HTU21D;64069;46.396;48.102;2024-02-04T14:45:43;5.31;87.80
75489;HTU21D;64069;46.396;48.102;2024-02-04T14:48:09;5.32;87.76
75489;HTU21D;64069;46.396;48.102;2024-02-04T14:50:35;5.30;87.65
75489;HTU21D;64069;46.396;48.102;2024-02-04T14:53:01;5.30;87.64
75489;HTU21D;64069;46.396;48.102;2024-02-04T14:55:27;5.32;87.61
75489;HTU21D;64069;46.396;48.102;2024-02-04T14:57:52;5.30;87.39
75489;HTU21D;64069;46.396;48.102;2024-02-04T15:00:18;5.31;87.40
75489;HTU21D;64069;46.396;48.102;2024-02-04T15:02:46;5.32;87.33
75489;HTU21D;64069;46.396;48.102;2024-02-04T15:05:12;5.33;87.37
75489;HTU21D;64069;46.396;48.102;2024-02-04T15:07:38;5.32;87.24
75489;HTU21D;64069;46.396;48.102;2024-02-04T15:10:04;5.31;87.22
75489;HTU21D;64069;46.396;48.102;2024-02-04T15:12:30;5.33;87.04
75489;HTU21D;64069;46.396;48.102;2024-02-04T15:14:57;5.35;87.06
75489;HTU21D;64069;46.396;48.102;2024-02-04T15:17:23;5.34;86.99
75489;HTU21D;64069;46.396;48.102;2024-02-04T15:19:49;5.32;86.95
75489;HTU21D;64069;46.396;48.102;2024-02-04T15:22:15;5.31;86.99
75489;HTU21D;64069;46.396;48.102;2024-02-04T15:24:41;5.28;87.08
75489;HTU21D;64069;46.396;48.102;2024-02-04T15:27:06;5.28;86.96